createdAt,value
2023-04-15T00:02:02.081Z,12.27
2023-04-15T00:05:34.496Z,10.70
2023-04-15T00:09:06.265Z,11.07
2023-04-15T00:12:38.465Z,12.80
2023-04-15T00:16:10.952Z,9.93
2023-04-15T00:19:44.248Z,11.83
2023-04-15T00:23:16.129Z,11.07
2023-04-15T00:26:49.128Z,10.45
2023-04-15T00:30:21.014Z,10.73
2023-04-15T00:33:53.389Z,11.03
2023-04-15T00:37:25.152Z,11.60
2023-04-15T00:40:57.539Z,12.85
2023-04-15T00:44:29.587Z,12.63
2023-04-15T00:48:01.701Z,11.68
2023-04-15T00:51:36.217Z,12.45
2023-04-15T00:55:09.790Z,10.30
2023-04-15T00:58:42.184Z,13.07
2023-04-15T01:02:15.549Z,11.23
2023-04-15T01:05:50.380Z,11.80
2023-04-15T01:09:23.032Z,15.60
2023-04-15T01:12:54.860Z,12.40
2023-04-15T01:16:29.834Z,12.32
2023-04-15T01:20:01.848Z,12.35
2023-04-15T01:23:39.390Z,12.10
2023-04-15T01:27:11.703Z,12.80
2023-04-15T01:30:44.759Z,13.55
2023-04-15T01:34:18.548Z,12.23
2023-04-15T01:37:51.409Z,12.38
2023-04-15T01:41:27.196Z,13.90
2023-04-15T01:44:59.266Z,12.17
2023-04-15T01:48:31.461Z,12.50
2023-04-15T01:52:03.612Z,11.95
2023-04-15T01:55:35.328Z,14.70
2023-04-15T01:59:07.684Z,14.27
2023-04-15T02:02:39.485Z,13.82
2023-04-15T02:06:12.233Z,12.73
2023-04-15T02:09:46.205Z,13.37
2023-04-15T02:13:18.112Z,12.30
2023-04-15T02:16:50.163Z,15.15
2023-04-15T02:20:22.664Z,11.80
2023-04-15T02:23:54.899Z,13.87
2023-04-15T02:27:26.660Z,10.77
2023-04-15T02:30:59.950Z,12.10
2023-04-15T02:34:31.870Z,12.00
2023-04-15T02:38:04.275Z,14.50
2023-04-15T02:41:36.678Z,12.70
2023-04-15T02:45:09.419Z,14.32
2023-04-15T02:48:41.666Z,13.77
2023-04-15T02:52:14.003Z,12.37
2023-04-15T02:55:46.428Z,13.05
2023-04-15T02:59:18.551Z,12.93
2023-04-15T03:02:52.413Z,13.13
2023-04-15T03:06:24.885Z,17.27
2023-04-15T03:09:57.013Z,12.57
2023-04-15T03:13:29.065Z,15.20
2023-04-15T03:17:00.951Z,14.03
2023-04-15T03:20:33.021Z,14.63
2023-04-15T03:24:04.971Z,14.90
2023-04-15T03:27:38.559Z,14.57
2023-04-15T03:31:10.388Z,14.73
2023-04-15T03:34:42.564Z,12.18
2023-04-15T03:38:14.343Z,13.10
2023-04-15T03:41:46.882Z,13.33
2023-04-15T03:45:18.670Z,15.00
2023-04-15T03:48:50.576Z,13.60
2023-04-15T03:52:22.375Z,13.75
2023-04-15T03:55:54.544Z,15.53
2023-04-15T03:59:26.455Z,15.82
2023-04-15T04:02:59.063Z,16.70
2023-04-15T04:06:31.330Z,15.60
2023-04-15T04:10:03.984Z,16.05
2023-04-15T04:13:35.998Z,17.08
2023-04-15T04:17:08.526Z,16.58
2023-04-15T04:20:40.512Z,14.87
2023-04-15T04:24:12.719Z,19.42
2023-04-15T04:27:45.548Z,15.90
2023-04-15T04:31:17.899Z,16.90
2023-04-15T04:34:50.140Z,16.88
2023-04-15T04:38:22.538Z,16.98
2023-04-15T04:41:54.774Z,17.65
2023-04-15T04:45:27.413Z,17.00
2023-04-15T04:48:59.328Z,16.55
2023-04-15T04:52:31.745Z,17.85
2023-04-15T04:56:04.044Z,16.93
2023-04-15T04:59:36.582Z,18.13
2023-04-15T05:03:08.642Z,19.15
2023-04-15T05:06:41.268Z,17.47
2023-04-15T05:10:14.717Z,16.50
2023-04-15T05:13:46.863Z,16.65
2023-04-15T05:17:19.063Z,18.27
2023-04-15T05:20:51.188Z,19.13
2023-04-15T05:24:23.589Z,19.38
2023-04-15T05:27:55.696Z,18.20
2023-04-15T05:31:28.151Z,18.53
2023-04-15T05:34:59.839Z,15.95
2023-04-15T05:38:32.056Z,18.65
2023-04-15T05:42:06.158Z,19.07
2023-04-15T05:45:37.826Z,16.55
2023-04-15T05:49:10.076Z,17.63
2023-04-15T05:52:41.911Z,18.33
2023-04-15T05:56:14.168Z,18.63
2023-04-15T05:59:45.857Z,17.98
2023-04-15T06:03:18.086Z,16.73
2023-04-15T06:06:49.744Z,16.30
2023-04-15T06:10:21.840Z,17.45
2023-04-15T06:13:53.762Z,17.27
2023-04-15T06:17:25.940Z,17.57
2023-04-15T06:20:58.018Z,19.02
2023-04-15T06:24:29.932Z,18.02
2023-04-15T06:28:02.474Z,16.33
2023-04-15T06:31:34.144Z,18.40
2023-04-15T06:35:06.396Z,15.38
2023-04-15T06:38:38.119Z,16.10
2023-04-15T06:42:11.296Z,15.30
2023-04-15T06:45:43.456Z,17.25
2023-04-15T06:49:15.288Z,16.30
2023-04-15T06:52:47.698Z,14.87
2023-04-15T06:56:21.957Z,14.93
2023-04-15T06:59:54.791Z,15.38
2023-04-15T07:03:30.291Z,13.65
2023-04-15T07:07:04.002Z,15.83
2023-04-15T07:10:35.784Z,15.40
2023-04-15T07:14:07.941Z,16.08
2023-04-15T07:17:41.046Z,16.67
2023-04-15T07:21:13.246Z,18.02
2023-04-15T07:24:45.079Z,16.17
2023-04-15T07:28:17.048Z,16.67
2023-04-15T07:31:48.716Z,16.45
2023-04-15T07:35:21.703Z,15.13
2023-04-15T07:38:53.746Z,15.75
2023-04-15T07:42:25.716Z,17.37
2023-04-15T07:45:57.430Z,18.88
2023-04-15T07:49:29.715Z,16.00
2023-04-15T07:53:01.647Z,15.37
2023-04-15T07:56:34.031Z,15.10
2023-04-15T08:00:07.800Z,17.75
2023-04-15T08:03:40.114Z,15.35
2023-04-15T08:07:12.481Z,15.63
2023-04-15T08:10:44.610Z,16.00
2023-04-15T08:14:16.828Z,16.02
2023-04-15T08:17:48.941Z,14.40
2023-04-15T08:21:21.304Z,17.60
2023-04-15T08:24:53.353Z,14.15
2023-04-15T08:28:25.344Z,14.32
2023-04-15T08:31:57.665Z,16.87
2023-04-15T08:35:29.716Z,12.70
2023-04-15T08:39:02.205Z,14.32
2023-04-15T08:42:42.373Z,14.17
2023-04-15T08:46:15.645Z,13.50
2023-04-15T08:49:54.167Z,14.40
2023-04-15T08:53:26.524Z,14.15
2023-04-15T08:56:59.320Z,13.20
2023-04-15T09:00:34.996Z,14.30
2023-04-15T09:04:08.167Z,12.93
2023-04-15T09:07:41.011Z,11.43
2023-04-15T09:11:13.316Z,10.40
2023-04-15T09:14:49.459Z,11.93
2023-04-15T09:18:47.673Z,12.20
2023-04-15T09:22:26.094Z,10.90
2023-04-15T09:25:58.195Z,10.40
2023-04-15T09:29:30.350Z,12.07
2023-04-15T09:33:08.228Z,10.73
2023-04-15T09:36:46.824Z,9.90
2023-04-15T09:40:35.895Z,10.43
2023-04-15T09:44:22.187Z,12.37
2023-04-15T09:47:55.031Z,10.60
2023-04-15T09:51:37.885Z,12.43
2023-04-15T09:55:11.158Z,9.98
2023-04-15T09:58:43.431Z,9.77
2023-04-15T10:02:16.440Z,10.25
2023-04-15T10:05:54.137Z,8.93
2023-04-15T10:09:27.129Z,9.67
2023-04-15T10:13:00.008Z,10.30
2023-04-15T10:16:32.844Z,9.43
2023-04-15T10:20:05.760Z,9.98
2023-04-15T10:23:47.030Z,10.30
2023-04-15T10:27:20.400Z,11.32
2023-04-15T10:30:53.533Z,8.95
2023-04-15T10:34:26.311Z,11.02
2023-04-15T10:37:58.050Z,8.40
2023-04-15T10:41:31.357Z,10.07
2023-04-15T10:45:03.705Z,11.32
2023-04-15T10:48:35.688Z,6.00
2023-04-15T10:52:09.753Z,6.33
2023-04-15T10:55:46.309Z,4.90
2023-04-15T10:59:18.650Z,4.30
2023-04-15T11:02:58.374Z,4.80
2023-04-15T11:06:45.537Z,4.47
2023-04-15T11:10:26.413Z,4.82
2023-04-15T11:13:58.447Z,5.45
2023-04-15T11:17:30.819Z,5.37
2023-04-15T11:21:09.736Z,5.78
2023-04-15T11:24:50.464Z,6.30
2023-04-15T11:28:26.603Z,5.57
2023-04-15T11:32:13.671Z,5.03
2023-04-15T11:35:45.705Z,4.57
2023-04-15T11:39:17.953Z,6.97
2023-04-15T11:43:09.267Z,7.13
2023-04-15T11:46:41.112Z,7.68
2023-04-15T11:50:23.353Z,7.07
2023-04-15T11:53:56.072Z,10.07
2023-04-15T11:57:35.528Z,8.43
2023-04-15T12:01:07.541Z,10.65
2023-04-15T12:04:39.779Z,9.15
2023-04-15T12:08:11.652Z,10.20
2023-04-15T12:11:51.567Z,9.87
2023-04-15T12:15:24.464Z,11.40
2023-04-15T12:18:59.411Z,16.35
2023-04-15T12:22:38.151Z,11.60
2023-04-15T12:26:10.721Z,10.75
2023-04-15T12:29:43.230Z,12.98
2023-04-15T12:33:15.407Z,13.57
2023-04-15T12:36:47.213Z,11.10
2023-04-15T12:40:20.044Z,13.27
2023-04-15T12:43:52.362Z,12.23
2023-04-15T12:47:24.493Z,13.07
2023-04-15T12:50:56.561Z,10.40
2023-04-15T12:54:29.382Z,16.88
2023-04-15T12:58:01.387Z,10.37
2023-04-15T13:01:33.234Z,12.48
2023-04-15T13:05:05.630Z,13.32
2023-04-15T13:08:42.588Z,13.80
2023-04-15T13:12:17.252Z,15.93
2023-04-15T13:15:49.480Z,13.07
2023-04-15T13:19:21.457Z,14.80
2023-04-15T13:22:54.230Z,13.37
2023-04-15T13:26:25.872Z,10.60
2023-04-15T13:29:57.917Z,12.43
2023-04-15T13:33:30.212Z,13.07
2023-04-15T13:37:08.694Z,16.63
2023-04-15T13:40:46.953Z,12.05
2023-04-15T13:44:22.310Z,13.13
2023-04-15T13:47:56.455Z,11.97
2023-04-15T13:51:28.226Z,12.07
2023-04-15T13:55:08.800Z,13.55
2023-04-15T13:58:53.418Z,12.25
2023-04-15T14:02:25.678Z,14.53
2023-04-15T14:05:58.176Z,16.20
2023-04-15T14:09:30.660Z,14.15
2023-04-15T14:13:02.617Z,12.60
2023-04-15T14:16:34.576Z,11.47
2023-04-15T14:20:10.515Z,11.45
2023-04-15T14:23:42.406Z,13.95
2023-04-15T14:27:14.435Z,11.15
2023-04-15T14:30:46.459Z,11.97
2023-04-15T14:34:18.510Z,11.52
2023-04-15T14:37:53.381Z,12.63
2023-04-15T14:41:25.204Z,13.80
2023-04-15T14:44:57.286Z,10.48
2023-04-15T14:48:31.514Z,13.55
2023-04-15T14:52:04.246Z,12.48
2023-04-15T14:55:36.038Z,12.43
2023-04-15T14:59:08.174Z,12.38
2023-04-15T15:02:40.755Z,12.90
2023-04-15T15:06:12.667Z,14.23
2023-04-15T15:09:44.694Z,12.77
2023-04-15T15:13:17.151Z,11.88
2023-04-15T15:16:49.314Z,25.88
2023-04-15T15:20:21.329Z,31.30
2023-04-15T15:23:53.418Z,17.10
2023-04-15T15:27:26.201Z,14.25
2023-04-15T15:30:57.964Z,14.43
2023-04-15T15:34:29.904Z,12.63
2023-04-15T15:38:01.730Z,11.35
2023-04-15T15:41:33.972Z,13.77
2023-04-15T15:45:06.566Z,15.43
2023-04-15T15:48:38.345Z,13.27
2023-04-15T15:52:11.363Z,10.68
2023-04-15T15:55:43.422Z,13.10
2023-04-15T15:59:15.468Z,12.87
2023-04-15T16:06:22.311Z,11.32
2023-04-15T16:09:54.395Z,14.03
2023-04-15T16:13:26.185Z,13.80
2023-04-15T16:16:58.228Z,11.73
2023-04-15T16:20:30.108Z,13.27
2023-04-15T16:24:02.766Z,12.50
2023-04-15T16:27:46.488Z,13.77
2023-04-15T16:31:26.574Z,13.05
2023-04-15T16:34:58.638Z,16.10
2023-04-15T16:38:30.725Z,13.48
2023-04-15T16:42:04.558Z,14.85
2023-04-15T16:45:36.345Z,14.35
2023-04-15T16:49:08.563Z,15.90
2023-04-15T16:52:40.398Z,13.20
2023-04-15T16:56:12.433Z,17.13
2023-04-15T16:59:44.948Z,16.40
2023-04-15T17:03:16.931Z,16.23
2023-04-15T17:06:49.051Z,14.70
2023-04-15T17:10:21.034Z,12.20
2023-04-15T17:13:53.049Z,13.27
2023-04-15T17:17:24.801Z,15.20
2023-04-15T17:20:56.860Z,14.18
2023-04-15T17:24:34.261Z,13.47
2023-04-15T17:28:06.705Z,12.45
2023-04-15T17:31:38.794Z,16.33
2023-04-15T17:35:10.775Z,15.35
2023-04-15T17:38:43.074Z,17.03
2023-04-15T17:42:15.655Z,17.20
2023-04-15T17:45:47.814Z,15.85
2023-04-15T17:49:19.742Z,16.40
2023-04-15T17:52:51.785Z,13.87
2023-04-15T17:56:24.358Z,13.07
2023-04-15T17:59:56.369Z,13.75
2023-04-15T18:03:28.438Z,14.33
2023-04-15T18:07:00.437Z,17.38
2023-04-15T18:10:33.957Z,15.65
2023-04-15T18:14:06.171Z,15.85
2023-04-15T18:17:38.178Z,18.53
2023-04-15T18:21:12.977Z,17.95
2023-04-15T18:24:45.389Z,23.60
2023-04-15T18:28:17.580Z,17.23
2023-04-15T18:31:49.745Z,21.65
2023-04-15T18:35:21.815Z,20.52
2023-04-15T18:38:54.231Z,16.23
2023-04-15T18:42:26.343Z,18.25
2023-04-15T18:45:58.993Z,17.35
2023-04-15T18:49:33.249Z,15.38
2023-04-15T18:53:05.107Z,17.60
2023-04-15T18:56:37.130Z,37.30
2023-04-15T19:00:10.784Z,24.75
2023-04-15T19:03:43.313Z,28.07
2023-04-15T19:07:15.304Z,27.77
2023-04-15T19:10:47.345Z,24.63
2023-04-15T19:14:19.268Z,22.07
2023-04-15T19:17:51.979Z,16.77
2023-04-15T19:21:24.283Z,28.10
2023-04-15T19:24:55.956Z,21.02
2023-04-15T19:28:28.427Z,19.60
2023-04-15T19:32:00.978Z,17.65
2023-04-15T19:35:33.330Z,19.98
2023-04-15T19:39:06.331Z,21.43
2023-04-15T19:42:38.700Z,22.23
2023-04-15T19:46:13.194Z,21.27
2023-04-15T19:49:45.520Z,22.13
2023-04-15T19:53:18.003Z,20.90
2023-04-15T19:56:49.878Z,33.75
2023-04-15T20:00:21.966Z,32.83
2023-04-15T20:03:54.785Z,30.20
2023-04-15T20:07:27.063Z,31.75
2023-04-15T20:10:59.221Z,42.63
2023-04-15T20:14:31.301Z,35.23
2023-04-15T20:18:06.054Z,34.77
2023-04-15T20:21:39.052Z,27.38
2023-04-15T20:25:11.097Z,22.13
2023-04-15T20:28:43.275Z,22.00
2023-04-15T20:32:14.931Z,23.08
2023-04-15T20:35:46.998Z,25.40
2023-04-15T20:39:18.827Z,28.20
2023-04-15T20:42:51.057Z,24.07
2023-04-15T20:46:27.311Z,24.48
2023-04-15T20:49:59.838Z,25.27
2023-04-15T20:53:31.858Z,25.53
2023-04-15T20:57:03.913Z,31.70
2023-04-15T21:00:35.862Z,28.45
2023-04-15T21:04:08.035Z,30.83
2023-04-15T21:07:40.936Z,27.83
2023-04-15T21:11:16.548Z,23.05
2023-04-15T21:14:56.513Z,19.48
2023-04-15T21:18:28.512Z,21.60
2023-04-15T21:22:00.440Z,21.85
2023-04-15T21:25:32.524Z,18.52
2023-04-15T21:29:04.679Z,20.00
2023-04-15T21:32:36.674Z,19.73
2023-04-15T21:36:08.998Z,19.77
2023-04-15T21:39:40.678Z,21.75
2023-04-15T21:43:16.960Z,23.10
2023-04-15T21:46:50.597Z,21.33
2023-04-15T21:50:23.988Z,20.70
2023-04-15T21:53:56.031Z,23.70
2023-04-15T21:57:28.252Z,24.13
2023-04-15T22:01:00.507Z,19.48
2023-04-15T22:04:32.606Z,24.80
2023-04-15T22:08:05.432Z,40.17
2023-04-15T22:11:37.502Z,40.67
2023-04-15T22:15:09.847Z,45.17
2023-04-15T22:18:41.478Z,52.93
2023-04-15T22:22:13.784Z,41.40
2023-04-15T22:25:46.642Z,24.08
2023-04-15T22:29:18.409Z,24.50
2023-04-15T22:32:50.704Z,28.98
2023-04-15T22:36:22.450Z,28.52
2023-04-15T22:39:54.388Z,27.35
2023-04-15T22:43:27.741Z,26.53
2023-04-15T22:47:00.130Z,31.10
2023-04-15T22:50:34.802Z,26.30
2023-04-15T22:54:09.352Z,33.83
2023-04-15T22:57:41.319Z,45.40
2023-04-15T23:01:17.425Z,39.17
2023-04-15T23:04:49.205Z,52.20
2023-04-15T23:08:21.233Z,46.75
2023-04-15T23:11:53.087Z,42.33
2023-04-15T23:15:25.353Z,42.85
2023-04-15T23:18:57.253Z,35.60
2023-04-15T23:22:29.496Z,37.47
2023-04-15T23:26:03.817Z,39.60
2023-04-15T23:29:36.200Z,37.53
2023-04-15T23:33:08.224Z,35.20
2023-04-15T23:36:40.414Z,34.28
2023-04-15T23:40:13.029Z,32.92
2023-04-15T23:43:44.951Z,32.63
2023-04-15T23:47:17.027Z,35.55
2023-04-15T23:50:49.613Z,34.40
2023-04-15T23:54:22.310Z,33.37
2023-04-15T23:57:54.144Z,33.45
